Time;durP1;ratioP1;P1;durP2;ratioP2;P2;SDS_P1;SDS_P2;PMS_P1;PMS_P2;Temp;Humidity;BMP_temperature;BMP_pressure;BME280_temperature;BME280_humidity;BME280_pressure;Samples;Min_cycle;Max_cycle;Signal;HPM_P1;HPM_P2
2023/09/17 00:00:25;;;;;;;8.30;5.75;;;;;;;27.95;nan;97873.19;5025151;28;20055;-65
2023/09/17 00:02:55;;;;;;;10.52;6.40;;;;;;;27.89;nan;97874.47;5026793;28;20433;-65
2023/09/17 00:05:25;;;;;;;8.23;6.40;;;;;;;27.90;nan;97881.53;5023098;28;20056;-65
2023/09/17 00:07:54;;;;;;;8.77;6.30;;;;;;;27.98;nan;97877.97;5027443;28;20195;-66
2023/09/17 00:10:23;;;;;;;10.65;7.18;;;;;;;28.00;nan;97881.97;5008200;28;20050;-65
2023/09/17 00:12:53;;;;;;;12.35;9.10;;;;;;;28.03;nan;97875.88;5015701;28;20156;-65
2023/09/17 00:15:26;;;;;;;18.80;9.10;;;;;;;28.00;nan;97879.25;5026149;28;20053;-65
2023/09/17 00:17:55;;;;;;;;;;;;;;;27.95;nan;97875.91;5027519;28;20053;-65
2023/09/17 00:20:25;;;;;;;22.23;11.68;;;;;;;27.93;nan;97880.88;5025952;28;20400;-65
2023/09/17 00:22:54;;;;;;;17.30;11.00;;;;;;;27.91;nan;97883.13;5026560;28;20053;-65
2023/09/17 00:25:25;;;;;;;19.67;10.43;;;;;;;27.92;nan;97882.81;5026182;28;20071;-65
2023/09/17 00:27:55;;;;;;;16.27;10.32;;;;;;;27.98;nan;97886.13;5026211;28;20057;-65
2023/09/17 00:30:24;;;;;;;21.48;10.15;;;;;;;27.94;nan;97890.63;5024721;28;20057;-65
2023/09/17 00:32:54;;;;;;;19.15;11.63;;;;;;;27.94;nan;97887.91;5022641;28;20349;-65
2023/09/17 00:35:23;;;;;;;20.60;11.27;;;;;;;27.94;nan;97890.63;5013025;28;20750;-65
2023/09/17 00:37:52;;;;;;;19.17;12.00;;;;;;;27.90;nan;97893.22;5024975;28;20558;-65
2023/09/17 00:40:24;;;;;;;19.02;11.20;;;;;;;27.88;nan;97889.22;5022849;28;20060;-65
2023/09/17 00:42:54;;;;;;;16.63;10.88;;;;;;;27.85;nan;97895.31;5025495;28;20544;-65
2023/09/17 00:45:23;;;;;;;18.00;11.35;;;;;;;27.88;nan;97894.66;5023894;28;20131;-65
2023/09/17 00:47:53;;;;;;;17.45;10.88;;;;;;;27.90;nan;97904.09;5025615;28;20045;-65
2023/09/17 00:50:22;;;;;;;21.83;11.73;;;;;;;27.90;nan;97897.84;5024891;28;20057;-65
2023/09/17 00:52:51;;;;;;;19.65;11.38;;;;;;;27.89;nan;97901.69;5015501;28;20080;-65
2023/09/17 00:55:21;;;;;;;16.35;11.02;;;;;;;27.90;nan;97901.38;5025585;28;20053;-65
2023/09/17 00:57:50;;;;;;;19.77;11.55;;;;;;;27.96;nan;97896.56;5026182;28;20060;-65
2023/09/17 01:00:21;;;;;;;19.27;12.20;;;;;;;27.96;nan;97908.25;5023556;28;20046;-65
2023/09/17 01:02:51;;;;;;;19.25;12.50;;;;;;;27.90;nan;97900.56;5018343;28;20053;-65
2023/09/17 01:05:21;;;;;;;19.40;11.30;;;;;;;27.93;nan;97897.19;5024254;28;20130;-65
2023/09/17 01:07:50;;;;;;;17.63;11.90;;;;;;;28.04;nan;97898.47;5020317;28;20175;-66
2023/09/17 01:10:22;;;;;;;18.02;12.07;;;;;;;28.07;nan;97905.97;5007677;28;20425;-65
2023/09/17 01:12:52;;;;;;;21.27;12.40;;;;;;;28.04;nan;97903.91;5025395;28;20061;-65
2023/09/17 01:15:22;;;;;;;25.15;12.25;;;;;;;28.07;nan;97904.03;5025526;28;20378;-65
2023/09/17 01:17:54;;;;;;;17.35;12.30;;;;;;;28.08;nan;97896.69;5026153;28;20049;-65
2023/09/17 01:20:30;;;;;;;18.45;11.35;;;;;;;28.11;nan;97913.19;5025116;28;20045;-65
2023/09/17 01:23:10;;;;;;;19.25;11.80;;;;;;;28.09;nan;97918.16;5024867;28;20069;-65
2023/09/17 01:25:56;;;;;;;17.85;12.88;;;;;;;28.16;nan;97914.13;5024645;28;20072;-65
2023/09/17 01:28:26;;;;;;;18.70;11.85;;;;;;;28.16;nan;97917.66;5022508;28;20048;-65
2023/09/17 01:30:56;;;;;;;19.95;11.70;;;;;;;28.15;nan;97920.72;5025573;28;20048;-66
2023/09/17 01:33:27;;;;;;;16.02;11.52;;;;;;;28.25;nan;97923.88;4990984;28;20739;-65
2023/09/17 01:36:19;;;;;;;16.25;11.02;;;;;;;28.31;nan;97924.50;5004898;28;20042;-65
2023/09/17 01:38:52;;;;;;;15.65;11.38;;;;;;;28.31;nan;97922.56;5023475;28;20152;-65
2023/09/17 01:41:25;;;;;;;15.27;9.88;;;;;;;28.33;nan;97923.03;5012521;28;20077;-65
2023/09/17 01:43:55;;;;;;;15.10;9.82;;;;;;;28.29;nan;97927.53;5005014;28;20065;-65
2023/09/17 01:46:26;;;;;;;14.43;9.85;;;;;;;28.36;nan;97936.03;5003793;28;20125;-65
2023/09/17 01:48:56;;;;;;;14.60;9.65;;;;;;;28.40;nan;97931.50;5018953;28;20793;-65
2023/09/17 01:51:29;;;;;;;11.50;9.13;;;;;;;28.42;nan;97931.16;5022561;28;20372;-65
2023/09/17 01:53:59;;;;;;;14.82;10.45;;;;;;;28.46;nan;97934.84;5012646;28;20452;-65
2023/09/17 01:56:28;;;;;;;11.38;8.52;;;;;;;28.51;nan;97929.19;5006491;28;20639;-65
2023/09/17 01:58:58;;;;;;;12.75;8.95;;;;;;;28.55;nan;97930.16;5022335;28;20384;-65
2023/09/17 02:01:27;;;;;;;14.38;9.98;;;;;;;28.57;nan;97923.25;5035353;28;20068;-65
2023/09/17 02:03:59;;;;;;;14.65;10.07;;;;;;;28.64;nan;97930.91;5025054;28;20071;-65
2023/09/17 02:06:29;;;;;;;15.33;10.57;;;;;;;28.77;nan;97931.81;5024000;28;20147;-66
2023/09/17 02:08:58;;;;;;;20.10;11.32;;;;;;;28.78;nan;97926.03;5012655;28;20049;-65
2023/09/17 02:11:27;;;;;;;17.40;10.32;;;;;;;28.80;nan;97925.72;5002065;28;20501;-65
2023/09/17 02:13:57;;;;;;;16.63;11.20;;;;;;;28.78;nan;97931.50;5023003;28;20072;-65
2023/09/17 02:16:27;;;;;;;15.50;10.80;;;;;;;28.77;nan;97938.06;5019585;28;20053;-65
2023/09/17 02:18:56;;;;;;;16.65;10.85;;;;;;;28.77;nan;97946.25;5038533;28;20129;-65
2023/09/17 02:21:26;;;;;;;13.60;10.18;;;;;;;28.77;nan;97948.97;5020896;28;20049;-65
2023/09/17 02:23:55;;;;;;;13.02;9.80;;;;;;;28.79;nan;97945.94;5034054;28;20095;-65
2023/09/17 02:26:24;;;;;;;13.30;9.18;;;;;;;28.86;nan;97951.66;5016373;28;20652;-65
2023/09/17 02:28:54;;;;;;;14.90;9.48;;;;;;;28.89;nan;97951.81;5007076;28;20136;-65
2023/09/17 02:31:24;;;;;;;16.58;9.48;;;;;;;28.94;nan;97948.09;5023030;28;20115;-65
2023/09/17 02:33:53;;;;;;;16.73;9.48;;;;;;;28.98;nan;97951.75;5023836;28;20141;-65
2023/09/17 02:36:23;;;;;;;20.35;11.00;;;;;;;28.99;nan;97948.69;5016687;28;20054;-65
2023/09/17 02:38:52;;;;;;;19.75;9.35;;;;;;;29.09;nan;97968.50;5022561;28;20060;-65
2023/09/17 02:41:21;;;;;;;20.77;9.60;;;;;;;29.09;nan;97969.31;5021662;28;20820;-65
2023/09/17 02:43:51;;;;;;;23.42;9.77;;;;;;;29.11;nan;97963.53;5024201;28;20060;-65
2023/09/17 02:46:21;;;;;;;21.80;9.88;;;;;;;29.31;nan;97963.56;5024096;28;20076;-65
2023/09/17 02:48:54;;;;;;;24.70;9.18;;;;;;;29.44;nan;97965.22;5024411;28;20054;-65
2023/09/17 02:51:23;;;;;;;20.70;9.77;;;;;;;29.47;nan;97966.50;5023973;28;20060;-66
2023/09/17 02:53:53;;;;;;;20.40;9.98;;;;;;;29.75;nan;97966.72;5024353;28;20064;-65
2023/09/17 02:56:22;;;;;;;30.75;12.23;;;;;;;29.94;nan;97964.34;5023518;28;20492;-65
2023/09/17 02:58:51;;;;;;;23.95;13.45;;;;;;;30.04;nan;97979.50;5024134;28;20053;-66
2023/09/17 03:01:23;;;;;;;23.40;13.60;;;;;;;30.17;nan;97979.19;5023875;28;20057;-65
2023/09/17 03:03:53;;;;;;;19.13;13.27;;;;;;;30.23;nan;97980.56;5023002;28;20119;-66
2023/09/17 03:06:23;;;;;;;22.92;14.23;;;;;;;30.42;nan;97979.22;5018970;28;20403;-65
2023/09/17 03:08:55;;;;;;;20.70;16.02;;;;;;;30.54;nan;97990.19;5023710;28;20085;-65
2023/09/17 03:11:28;;;;;;;32.58;19.38;;;;;;;30.61;nan;97980.31;5022262;28;20469;-65
2023/09/17 03:14:03;;;;;;;34.15;22.63;;;;;;;30.60;nan;97989.66;5030907;28;20053;-65
2023/09/17 03:16:33;;;;;;;34.13;23.13;;;;;;;30.61;nan;97987.72;5023142;28;20061;-65
2023/09/17 03:19:04;;;;;;;32.67;23.08;;;;;;;30.77;nan;97991.38;5021244;28;20056;-64
2023/09/17 03:21:38;;;;;;;32.95;23.48;;;;;;;30.78;nan;97987.50;5005631;28;20496;-64
2023/09/17 03:24:09;;;;;;;41.67;24.50;;;;;;;30.84;nan;97988.88;4988224;28;20045;-64
2023/09/17 03:26:38;;;;;;;40.55;24.95;;;;;;;30.87;nan;97996.38;5009224;28;20045;-64
2023/09/17 03:29:08;;;;;;;37.15;25.42;;;;;;;30.86;nan;97992.03;5018442;28;20111;-64
2023/09/17 03:31:37;;;;;;;36.47;27.20;;;;;;;30.92;nan;97993.44;5013215;28;20077;-65
2023/09/17 03:34:09;;;;;;;41.25;27.60;;;;;;;30.93;nan;97988.75;5023211;28;20064;-64
2023/09/17 03:36:39;;;;;;;37.28;25.98;;;;;;;30.98;nan;97997.50;5020994;28;20130;-64
2023/09/17 03:39:12;;;;;;;50.67;32.60;;;;;;;30.86;nan;97994.78;5022740;28;20089;-64
2023/09/17 03:41:42;;;;;;;54.30;35.67;;;;;;;30.99;nan;97998.31;5023266;28;20060;-64
2023/09/17 03:44:11;;;;;;;62.25;35.90;;;;;;;31.00;nan;98005.38;5021932;28;20152;-64
2023/09/17 03:46:41;;;;;;;49.08;33.95;;;;;;;31.04;nan;98004.38;5024228;28;20061;-64
2023/09/17 03:49:10;;;;;;;54.88;37.53;;;;;;;31.14;nan;98006.66;5026024;28;20543;-65
2023/09/17 03:51:39;;;;;;;51.70;36.92;;;;;;;31.20;nan;98013.47;5026092;28;20049;-64
2023/09/17 03:54:09;;;;;;;54.53;37.55;;;;;;;31.25;nan;98017.16;5024000;28;20049;-64
2023/09/17 03:56:38;;;;;;;60.65;41.42;;;;;;;31.39;nan;98014.81;5026638;28;20049;-64
2023/09/17 03:59:07;;;;;;;67.15;45.20;;;;;;;31.18;nan;98015.78;5026222;28;20127;-65
2023/09/17 04:01:37;;;;;;;64.80;43.03;;;;;;;31.47;nan;98022.09;5007972;28;20053;-65
2023/09/17 04:04:06;;;;;;;63.90;44.38;;;;;;;31.59;nan;98016.63;5036998;28;20065;-64
2023/09/17 04:06:38;;;;;;;64.63;41.72;;;;;;;31.54;nan;98014.09;5041507;28;20071;-64
2023/09/17 04:09:09;;;;;;;53.75;38.22;;;;;;;31.61;nan;98011.59;5045432;28;20048;-64
2023/09/17 04:11:40;;;;;;;52.55;35.42;;;;;;;31.44;nan;98020.84;5033542;28;20045;-65
2023/09/17 04:14:11;;;;;;;52.85;33.33;;;;;;;31.44;nan;98022.78;5008473;28;20136;-65
2023/09/17 04:16:40;;;;;;;43.83;31.77;;;;;;;31.61;nan;98020.63;5026106;28;20594;-64
2023/09/17 04:19:09;;;;;;;49.03;32.17;;;;;;;31.67;nan;98021.19;5025591;28;20053;-64
2023/09/17 04:21:39;;;;;;;49.88;32.40;;;;;;;31.71;nan;98011.13;5026192;28;20147;-64
2023/09/17 04:24:12;;;;;;;42.72;29.67;;;;;;;31.61;nan;98008.84;5041698;28;20053;-64
2023/09/17 04:26:44;;;;;;;35.17;26.55;;;;;;;31.57;nan;98019.72;5020210;28;20053;-65
2023/09/17 04:29:13;;;;;;;36.60;25.87;;;;;;;31.67;nan;98004.75;5020307;28;20503;-64
2023/09/17 04:31:43;;;;;;;40.17;26.90;;;;;;;31.68;nan;98005.53;5009838;28;20286;-64
2023/09/17 04:34:13;;;;;;;37.10;25.80;;;;;;;31.72;nan;98001.75;5022496;28;20077;-64
2023/09/17 04:36:43;;;;;;;37.78;26.25;;;;;;;31.96;nan;98003.59;5024000;28;20045;-64
2023/09/17 04:39:14;;;;;;;33.10;24.50;;;;;;;32.17;nan;98001.50;5024706;28;20056;-64
2023/09/17 04:41:45;;;;;;;36.83;24.42;;;;;;;32.69;nan;98001.28;4991427;28;20132;-64
2023/09/17 04:44:15;;;;;;;33.28;23.70;;;;;;;32.94;nan;97999.94;5000062;28;20053;-64
2023/09/17 04:46:45;;;;;;;38.25;24.55;;;;;;;33.28;nan;98008.59;5023109;28;20041;-64
2023/09/17 04:49:14;;;;;;;37.50;26.15;;;;;;;33.09;nan;98003.00;5005435;28;20077;-64
2023/09/17 04:51:44;;;;;;;39.17;25.80;;;;;;;33.86;nan;98011.41;5018337;28;20046;-64
2023/09/17 04:54:13;;;;;;;39.22;27.42;;;;;;;34.47;nan;98016.91;5020479;28;20809;-64
2023/09/17 04:56:43;;;;;;;38.60;27.60;;;;;;;34.30;nan;98018.16;5003571;28;20049;-65
2023/09/17 04:59:15;;;;;;;37.03;26.63;;;;;;;34.49;nan;98011.81;5002144;28;20064;-65
2023/09/17 05:01:45;;;;;;;34.72;25.05;;;;;;;34.68;nan;98006.31;4979760;28;20050;-65
2023/09/17 05:04:16;;;;;;;40.15;25.88;;;;;;;34.78;nan;98011.19;4979169;28;20072;-64
2023/09/17 05:06:46;;;;;;;38.45;25.98;;;;;;;34.97;nan;98018.56;4985351;28;20187;-64
2023/09/17 05:09:15;;;;;;;40.85;27.98;;;;;;;35.26;nan;98015.09;4985693;28;20042;-64
2023/09/17 05:11:44;;;;;;;39.65;27.92;;;;;;;35.29;nan;98019.06;4996779;28;20101;-65
2023/09/17 05:14:13;;;;;;;41.67;27.90;;;;;;;35.17;nan;98020.09;4980216;28;20521;-64
2023/09/17 05:16:42;;;;;;;41.17;28.85;;;;;;;35.26;nan;98011.56;4985052;28;20054;-64
2023/09/17 05:19:12;;;;;;;48.17;29.48;;;;;;;34.51;nan;98015.03;4984944;28;20046;-64
2023/09/17 05:21:41;;;;;;;34.05;23.08;;;;;;;34.07;nan;98015.38;4996918;28;20160;-65
2023/09/17 05:24:12;;;;;;;25.05;18.25;;;;;;;33.71;nan;98005.63;4977902;28;20438;-65
2023/09/17 05:26:41;;;;;;;30.40;20.27;;;;;;;33.52;nan;98013.81;5008516;28;20054;-64
2023/09/17 05:29:15;;;;;;;27.92;19.10;;;;;;;33.45;nan;98010.94;4985074;28;20050;-64
2023/09/17 05:31:46;;;;;;;38.53;26.23;;;;;;;32.95;nan;98008.97;4976430;28;20139;-63
2023/09/17 05:34:16;;;;;;;50.55;34.63;;;;;;;32.75;nan;98016.31;4983601;28;20057;-63
2023/09/17 05:36:46;;;;;;;68.03;42.97;;;;;;;32.47;nan;98037.50;4985217;28;20046;-63
2023/09/17 05:39:15;;;;;;;30.23;15.80;;;;;;;31.45;nan;98033.41;5000767;28;20061;-63
2023/09/17 05:41:45;;;;;;;22.65;6.72;;;;;;;30.41;nan;98032.28;4992031;28;20051;-63
2023/09/17 05:44:14;;;;;;;15.07;5.57;;;;;;;30.07;nan;98044.38;4983765;28;20054;-64
2023/09/17 05:46:44;;;;;;;17.80;4.47;;;;;;;29.24;nan;98050.56;4997015;28;20169;-63
2023/09/17 05:49:13;;;;;;;14.77;5.22;;;;;;;28.64;nan;98097.13;4984626;28;20088;-64
2023/09/17 05:51:43;;;;;;;13.13;5.93;;;;;;;27.51;nan;98084.69;4985107;28;20050;-63
2023/09/17 05:54:12;;;;;;;12.13;5.97;;;;;;;26.47;nan;98098.13;4973436;28;20054;-64
2023/09/17 05:56:42;;;;;;;8.60;6.53;;;;;;;26.13;nan;98093.22;4982318;28;20061;-64
2023/09/17 05:59:11;;;;;;;10.38;6.32;;;;;;;26.09;nan;98089.53;5000219;28;20049;-66
2023/09/17 06:01:40;;;;;;;10.55;7.32;;;;;;;26.22;nan;98053.41;5010682;28;20135;-67
2023/09/17 06:04:10;;;;;;;10.07;6.30;;;;;;;26.23;nan;98065.88;5031829;28;20072;-65
2023/09/17 06:06:39;;;;;;;7.93;5.85;;;;;;;26.34;nan;98075.34;5015468;28;20183;-63
2023/09/17 06:09:09;;;;;;;12.07;6.53;;;;;;;26.59;nan;98055.72;5023911;28;20080;-65
2023/09/17 06:11:38;;;;;;;7.78;6.30;;;;;;;26.64;nan;98049.34;5023602;28;20069;-64
2023/09/17 06:14:07;;;;;;;6.95;5.55;;;;;;;26.56;nan;98050.88;5021439;28;20056;-63
2023/09/17 06:16:37;;;;;;;7.85;5.53;;;;;;;26.56;nan;98044.63;5027743;28;20049;-63
2023/09/17 06:19:23;;;;;;;5.93;5.20;;;;;;;26.66;nan;98056.03;5029135;28;20188;-64
2023/09/17 06:21:54;;;;;;;7.30;4.97;;;;;;;26.65;nan;98065.31;5030150;28;20357;-63
2023/09/17 06:24:23;;;;;;;4.47;3.83;;;;;;;26.43;nan;98083.56;5031697;28;20056;-68
2023/09/17 06:26:52;;;;;;;8.10;4.90;;;;;;;26.71;nan;98096.66;5000640;28;20146;-68
2023/09/17 06:29:22;;;;;;;7.45;4.53;;;;;;;26.91;nan;98108.94;5006610;28;20435;-65
2023/09/17 06:31:52;;;;;;;7.63;3.47;;;;;;;26.81;nan;98112.72;5029038;28;20052;-67
2023/09/17 06:34:22;;;;;;;4.57;3.67;;;;;;;26.94;nan;98116.47;5017344;28;20065;-66
2023/09/17 06:36:51;;;;;;;3.30;2.92;;;;;;;26.92;nan;98115.97;5021474;28;20469;-66
2023/09/17 06:39:21;;;;;;;4.10;3.55;;;;;;;27.04;nan;98121.63;5020570;28;20136;-66
2023/09/17 06:41:50;;;;;;;3.55;2.60;;;;;;;27.04;nan;98129.00;5025875;28;20760;-66
2023/09/17 06:44:20;;;;;;;2.17;1.98;;;;;;;26.75;nan;98127.53;5025234;28;20049;-66
2023/09/17 06:46:54;;;;;;;2.25;1.98;;;;;;;26.51;nan;98131.72;5027225;28;20058;-66
2023/09/17 06:49:24;;;;;;;3.25;1.70;;;;;;;26.31;nan;98128.38;5031836;28;20045;-67
2023/09/17 06:51:55;;;;;;;2.58;1.80;;;;;;;26.22;nan;98132.94;5030538;28;20554;-67
2023/09/17 06:54:24;;;;;;;2.28;1.80;;;;;;;26.11;nan;98130.75;5022296;28;20473;-66
2023/09/17 06:56:53;;;;;;;2.00;1.80;;;;;;;26.07;nan;98130.53;5018492;28;20050;-67
2023/09/17 06:59:23;;;;;;;2.35;1.80;;;;;;;25.99;nan;98128.56;5018076;28;20128;-68
2023/09/17 07:01:53;;;;;;;3.92;2.47;;;;;;;26.08;nan;98131.34;5015144;28;20052;-67
2023/09/17 07:04:24;;;;;;;4.22;2.00;;;;;;;26.02;nan;98119.03;5016817;28;20137;-67
2023/09/17 07:07:10;;;;;;;3.67;2.40;;;;;;;26.07;nan;98111.53;5013279;28;20125;-70
2023/09/17 07:09:39;;;;;;;3.50;2.75;;;;;;;26.13;nan;98096.75;5021362;28;20041;-70
2023/09/17 07:12:09;;;;;;;3.97;3.50;;;;;;;26.13;nan;98091.31;5016875;28;20050;-70
2023/09/17 07:14:38;;;;;;;4.03;3.42;;;;;;;26.20;nan;98094.41;5019219;28;20081;-70
2023/09/17 07:17:07;;;;;;;4.60;4.20;;;;;;;26.15;nan;98086.41;5019399;28;20041;-67
2023/09/17 07:19:37;;;;;;;5.60;4.53;;;;;;;26.23;nan;98085.69;5024245;28;20052;-68
2023/09/17 07:22:11;;;;;;;5.05;4.28;;;;;;;26.52;nan;98093.34;5005218;28;20057;-66
2023/09/17 07:24:42;;;;;;;8.13;5.28;;;;;;;26.79;nan;98097.81;5031164;28;20812;-66
2023/09/17 07:27:11;;;;;;;5.10;4.07;;;;;;;27.00;nan;98092.66;5031262;28;20052;-67
2023/09/17 07:29:41;;;;;;;4.53;4.03;;;;;;;27.16;nan;98085.69;5030017;28;20061;-68
2023/09/17 07:32:10;;;;;;;4.82;4.40;;;;;;;27.30;nan;98099.97;5027235;28;20052;-69
2023/09/17 07:34:39;;;;;;;4.80;4.05;;;;;;;27.36;nan;98108.78;5020362;28;20065;-70
2023/09/17 07:37:09;;;;;;;4.30;3.90;;;;;;;27.42;nan;98105.59;5030279;28;20114;-70
2023/09/17 07:39:39;;;;;;;4.72;4.03;;;;;;;27.40;nan;98105.09;5035456;28;20046;-67
2023/09/17 07:42:10;;;;;;;4.50;3.40;;;;;;;27.45;nan;98102.25;5016375;28;20476;-69
2023/09/17 07:44:40;;;;;;;3.60;3.13;;;;;;;27.45;nan;98094.06;5033314;28;20562;-71
2023/09/17 07:47:12;;;;;;;3.35;2.88;;;;;;;27.52;nan;98090.94;5026916;28;20033;-67
2023/09/17 07:49:41;;;;;;;2.38;2.17;;;;;;;27.40;nan;98096.94;5030726;28;20048;-67
2023/09/17 07:52:12;;;;;;;2.05;1.80;;;;;;;27.34;nan;98103.66;5025645;28;20054;-69
2023/09/17 07:54:43;;;;;;;2.08;1.80;;;;;;;27.45;nan;98104.16;5036157;28;20049;-69
2023/09/17 07:57:13;;;;;;;1.52;1.40;;;;;;;27.42;nan;98086.56;5025177;28;20196;-68
2023/09/17 07:59:42;;;;;;;2.25;1.33;;;;;;;27.38;nan;98087.50;5025239;28;20080;-70
2023/09/17 08:02:12;;;;;;;3.47;1.30;;;;;;;27.43;nan;98090.88;5018993;28;20057;-71
2023/09/17 08:04:41;;;;;;;2.05;1.30;;;;;;;27.47;nan;98080.16;5024100;28;20061;-66
2023/09/17 08:07:14;;;;;;;2.88;1.55;;;;;;;27.47;nan;98078.25;5028236;28;20664;-66
2023/09/17 08:09:43;;;;;;;5.00;1.35;;;;;;;27.25;nan;98065.56;5030431;28;20072;-65
2023/09/17 08:12:13;;;;;;;1.17;1.02;;;;;;;27.31;nan;98065.44;5026658;28;20654;-65
2023/09/17 08:14:46;;;;;;;3.85;1.30;;;;;;;27.32;nan;98065.09;5031839;28;20060;-66
2023/09/17 08:17:31;;;;;;;2.47;1.30;;;;;;;27.30;nan;98059.19;5032485;28;20072;-66
2023/09/17 08:20:00;;;;;;;1.30;1.20;;;;;;;27.30;nan;98056.47;5031092;28;20049;-65
2023/09/17 08:22:30;;;;;;;1.77;1.17;;;;;;;27.21;nan;98050.19;5020182;28;20049;-65
2023/09/17 08:24:59;;;;;;;2.03;1.30;;;;;;;27.23;nan;98046.03;5003759;28;20128;-65
2023/09/17 08:27:28;;;;;;;2.10;1.55;;;;;;;27.21;nan;98040.13;5026168;28;20132;-63
2023/09/17 08:29:59;;;;;;;4.10;1.88;;;;;;;27.20;nan;98032.28;5026531;28;20154;-64
2023/09/17 08:32:30;;;;;;;2.13;1.40;;;;;;;27.22;nan;98013.72;5020403;28;20046;-66
2023/09/17 08:34:59;;;;;;;1.95;1.63;;;;;;;27.15;nan;98005.25;5023722;28;20049;-65
2023/09/17 08:37:29;;;;;;;3.13;1.95;;;;;;;27.08;nan;97999.47;5024389;28;20056;-64
2023/09/17 08:39:59;;;;;;;4.65;2.10;;;;;;;27.08;nan;97988.59;5006598;28;20060;-66
2023/09/17 08:42:29;;;;;;;2.55;2.10;;;;;;;27.13;nan;97967.47;5018528;28;20045;-64
2023/09/17 08:44:59;;;;;;;3.63;2.67;;;;;;;27.16;nan;97964.16;5011168;28;20057;-64
2023/09/17 08:47:28;;;;;;;3.88;2.95;;;;;;;27.18;nan;97947.50;5025445;28;20797;-65
2023/09/17 08:49:58;;;;;;;3.38;2.53;;;;;;;27.22;nan;97945.75;5025071;28;20064;-64
2023/09/17 08:52:32;;;;;;;3.10;2.20;;;;;;;27.24;nan;97929.91;5023195;28;20057;-65
2023/09/17 08:55:08;;;;;;;3.10;2.35;;;;;;;27.20;nan;97915.38;4680335;28;10000280;-65
2023/09/17 08:57:45;;;;;;;3.15;2.40;;;;;;;27.30;nan;97912.34;5027192;28;20053;-66
2023/09/17 09:00:21;;;;;;;2.92;2.30;;;;;;;27.38;nan;97903.38;4996699;28;20134;-64
2023/09/17 09:03:01;;;;;;;2.75;2.25;;;;;;;27.45;nan;97890.06;5017760;28;20045;-66
2023/09/17 09:05:50;;;;;;;3.00;2.70;;;;;;;27.53;nan;97875.69;5020000;28;20052;-65
2023/09/17 09:08:21;;;;;;;2.88;2.65;;;;;;;27.64;nan;97863.34;5017618;28;20058;-68
2023/09/17 09:10:50;;;;;;;2.58;2.38;;;;;;;27.74;nan;97850.53;5017708;28;20459;-67
2023/09/17 09:13:21;;;;;;;2.63;2.30;;;;;;;27.82;nan;97841.53;5014993;28;20047;-67
2023/09/17 09:15:51;;;;;;;3.05;2.50;;;;;;;27.90;nan;97829.81;5026120;28;20060;-68
2023/09/17 09:18:23;;;;;;;3.08;2.65;;;;;;;28.00;nan;97827.53;5017114;28;20123;-67
2023/09/17 09:20:52;;;;;;;3.83;2.70;;;;;;;28.07;nan;97824.28;5022556;28;20541;-67
2023/09/17 09:23:23;;;;;;;3.05;2.75;;;;;;;28.11;nan;97806.19;5022603;28;20195;-66
2023/09/17 09:25:52;;;;;;;3.20;2.63;;;;;;;28.17;nan;97806.81;5015646;28;20046;-67
2023/09/17 09:28:21;;;;;;;3.30;2.33;;;;;;;28.20;nan;97798.78;5019771;28;21756;-68
2023/09/17 09:30:51;;;;;;;2.55;2.28;;;;;;;28.25;nan;97800.50;5020092;28;20045;-67
2023/09/17 09:33:21;;;;;;;2.65;2.30;;;;;;;28.34;nan;97801.25;5016468;28;20069;-66
2023/09/17 09:35:51;;;;;;;2.38;2.17;;;;;;;28.39;nan;97796.44;5022737;28;20045;-66
2023/09/17 09:38:21;;;;;;;5.38;2.17;;;;;;;28.45;nan;97789.66;5021564;28;20045;-66
2023/09/17 09:40:51;;;;;;;2.20;2.00;;;;;;;28.49;nan;97787.88;5027290;28;20528;-66
2023/09/17 09:43:31;;;;;;;3.15;1.88;;;;;;;28.57;nan;97778.84;5020804;28;20044;-66
2023/09/17 09:46:04;;;;;;;2.97;1.90;;;;;;;28.66;nan;97775.25;5025883;28;20600;-66
2023/09/17 09:48:41;;;;;;;2.10;1.90;;;;;;;28.73;nan;97767.34;5031107;28;20413;-66
2023/09/17 09:51:10;;;;;;;3.67;1.95;;;;;;;28.78;nan;97765.22;5019576;28;20080;-66
2023/09/17 09:53:40;;;;;;;2.38;1.98;;;;;;;28.86;nan;97769.78;5016483;28;20044;-68
2023/09/17 09:56:11;;;;;;;1.85;1.52;;;;;;;28.89;nan;97760.16;5016963;28;20064;-67
2023/09/17 09:58:41;;;;;;;1.50;1.40;;;;;;;28.92;nan;97756.75;5018066;28;20155;-65
2023/09/17 10:01:14;;;;;;;2.00;1.35;;;;;;;28.92;nan;97759.50;4662968;28;10000283;-68
2023/09/17 10:03:43;;;;;;;2.17;1.80;;;;;;;28.86;nan;97760.81;5018620;28;20480;-64
2023/09/17 10:06:13;;;;;;;2.28;1.30;;;;;;;28.91;nan;97771.53;4999741;28;20049;-67
2023/09/17 10:08:42;;;;;;;3.13;1.45;;;;;;;28.92;nan;97767.66;5024736;28;20061;-66
2023/09/17 10:11:13;;;;;;;1.70;1.38;;;;;;;28.95;nan;97769.72;5021337;28;20053;-67
2023/09/17 10:13:42;;;;;;;1.67;1.38;;;;;;;28.97;nan;97767.47;5024738;28;20045;-67
2023/09/17 10:16:14;;;;;;;2.78;1.38;;;;;;;28.92;nan;97765.75;5027681;28;20049;-67
2023/09/17 10:18:45;;;;;;;1.77;1.52;;;;;;;28.90;nan;97764.50;5022554;28;20053;-67
2023/09/17 10:21:16;;;;;;;4.38;1.58;;;;;;;28.89;nan;97768.34;5017647;28;20589;-67
2023/09/17 10:23:46;;;;;;;3.17;1.75;;;;;;;28.84;nan;97779.44;5024942;28;20917;-67
2023/09/17 10:26:18;;;;;;;1.38;1.27;;;;;;;28.78;nan;97778.84;5026510;28;20520;-67
2023/09/17 10:28:50;;;;;;;1.73;1.60;;;;;;;28.77;nan;97779.97;5030648;28;20060;-68
2023/09/17 10:31:21;;;;;;;1.63;1.50;;;;;;;28.74;nan;97785.31;5030833;28;20164;-67
2023/09/17 10:33:53;;;;;;;2.28;1.77;;;;;;;28.73;nan;97794.59;5021101;28;20046;-68
2023/09/17 10:36:24;;;;;;;1.70;1.60;;;;;;;28.71;nan;97796.88;5016289;28;20060;-68
2023/09/17 10:38:55;;;;;;;1.75;1.63;;;;;;;28.66;nan;97802.50;5018589;28;20117;-69
2023/09/17 10:41:25;;;;;;;2.10;1.65;;;;;;;28.66;nan;97799.78;5014573;28;20416;-69
2023/09/17 10:43:57;;;;;;;1.60;1.50;;;;;;;28.63;nan;97806.69;5020728;28;20100;-67
2023/09/17 10:46:32;;;;;;;5.35;1.60;;;;;;;28.63;nan;97803.16;4997550;28;20475;-69
2023/09/17 10:49:03;;;;;;;2.85;1.77;;;;;;;28.63;nan;97806.69;5020072;28;20159;-68
2023/09/17 10:51:33;;;;;;;3.70;2.00;;;;;;;28.64;nan;97802.00;5019837;28;20060;-68
2023/09/17 10:54:03;;;;;;;3.13;1.70;;;;;;;28.63;nan;97808.63;5003079;28;20041;-68
2023/09/17 10:56:34;;;;;;;1.60;1.42;;;;;;;28.69;nan;97815.44;5021862;28;20060;-68
2023/09/17 10:59:05;;;;;;;1.80;1.40;;;;;;;28.74;nan;97810.63;5023405;28;20387;-68
2023/09/17 11:01:35;;;;;;;2.05;1.85;;;;;;;28.77;nan;97807.22;5019309;28;20045;-69
2023/09/17 11:04:10;;;;;;;1.63;1.52;;;;;;;28.82;nan;97808.97;5023906;28;20033;-68
2023/09/17 11:06:42;;;;;;;2.83;1.70;;;;;;;28.81;nan;97805.44;5022082;28;20052;-69
2023/09/17 11:09:13;;;;;;;1.80;1.70;;;;;;;28.82;nan;97803.50;5022071;28;20459;-69
2023/09/17 11:11:43;;;;;;;1.70;1.33;;;;;;;28.79;nan;97815.09;5023870;28;20132;-69
2023/09/17 11:14:14;;;;;;;1.88;1.67;;;;;;;28.75;nan;97820.41;5022923;28;20049;-69
2023/09/17 11:16:46;;;;;;;1.88;1.50;;;;;;;28.77;nan;97822.78;5019399;28;20436;-69
2023/09/17 11:19:20;;;;;;;;;;;;;;;28.74;nan;97820.72;5023467;28;20913;-68
2023/09/17 11:22:11;;;;;;;1.45;1.35;;;;;;;28.70;nan;97820.59;5023267;28;19925;-68
2023/09/17 11:24:45;;;;;;;1.60;1.50;;;;;;;28.66;nan;97813.41;5019916;28;20053;-68
2023/09/17 11:27:19;;;;;;;3.83;1.42;;;;;;;28.63;nan;97814.88;5015285;28;20057;-68
2023/09/17 11:29:49;;;;;;;1.80;1.55;;;;;;;28.57;nan;97813.47;5016298;28;20060;-66
2023/09/17 11:32:24;;;;;;;1.38;1.27;;;;;;;28.54;nan;97795.06;5006913;28;20650;-68
2023/09/17 11:34:54;;;;;;;1.83;1.70;;;;;;;28.51;nan;97791.03;5024384;28;20604;-68
2023/09/17 11:37:25;;;;;;;1.63;1.52;;;;;;;28.50;nan;97797.63;5023778;28;20517;-68
2023/09/17 11:39:54;;;;;;;1.40;1.30;;;;;;;28.48;nan;97802.63;5024153;28;20091;-68
2023/09/17 11:42:26;;;;;;;1.88;1.50;;;;;;;28.43;nan;97791.09;5023155;28;20081;-68
2023/09/17 11:44:56;;;;;;;1.87;1.63;;;;;;;28.44;nan;97787.25;5023464;28;20045;-68
2023/09/17 11:47:25;;;;;;;3.78;1.60;;;;;;;28.41;nan;97790.66;5023026;28;20049;-68
2023/09/17 11:49:55;;;;;;;1.80;1.70;;;;;;;28.38;nan;97794.81;5023354;28;20405;-68
2023/09/17 11:52:25;;;;;;;2.60;1.80;;;;;;;28.35;nan;97790.03;5022243;28;20059;-68
2023/09/17 11:55:03;;;;;;;2.30;1.77;;;;;;;28.33;nan;97789.56;5023683;28;20613;-68
2023/09/17 11:57:33;;;;;;;2.55;2.03;;;;;;;28.28;nan;97787.03;5023179;28;20057;-68
2023/09/17 12:00:09;;;;;;;1.90;1.70;;;;;;;28.31;nan;97791.84;5024197;28;20060;-67